sensor_id;sensor_type;location;lat;lon;timestamp;P1;durP1;ratioP1;P2;durP2;ratioP2
1140;SDS011;559;48.628;8.924;2023-04-08T00:00:20;213.73;;;202.40;;
1140;SDS011;559;48.628;8.924;2023-04-08T00:02:46;216.80;;;205.73;;
1140;SDS011;559;48.628;8.924;2023-04-08T00:05:13;216.55;;;205.63;;
1140;SDS011;559;48.628;8.924;2023-04-08T00:07:41;218.45;;;207.10;;
1140;SDS011;559;48.628;8.924;2023-04-08T00:10:08;214.57;;;203.38;;
1140;SDS011;559;48.628;8.924;2023-04-08T00:12:35;218.18;;;206.77;;
1140;SDS011;559;48.628;8.924;2023-04-08T00:15:02;215.45;;;204.40;;
1140;SDS011;559;48.628;8.924;2023-04-08T00:17:29;216.13;;;204.65;;
1140;SDS011;559;48.628;8.924;2023-04-08T00:19:55;222.93;;;211.32;;
1140;SDS011;559;48.628;8.924;2023-04-08T00:22:22;215.82;;;204.60;;
1140;SDS011;559;48.628;8.924;2023-04-08T00:24:53;221.05;;;209.35;;
1140;SDS011;559;48.628;8.924;2023-04-08T00:27:20;216.27;;;204.77;;
1140;SDS011;559;48.628;8.924;2023-04-08T00:29:46;211.95;;;200.75;;
1140;SDS011;559;48.628;8.924;2023-04-08T00:32:13;220.15;;;208.43;;
1140;SDS011;559;48.628;8.924;2023-04-08T00:34:41;221.77;;;209.85;;
1140;SDS011;559;48.628;8.924;2023-04-08T00:37:07;215.48;;;204.15;;
1140;SDS011;559;48.628;8.924;2023-04-08T00:39:36;225.35;;;213.35;;
1140;SDS011;559;48.628;8.924;2023-04-08T00:42:04;222.55;;;211.02;;
1140;SDS011;559;48.628;8.924;2023-04-08T00:44:35;227.15;;;215.68;;
1140;SDS011;559;48.628;8.924;2023-04-08T00:47:03;227.77;;;216.25;;
1140;SDS011;559;48.628;8.924;2023-04-08T00:49:30;222.05;;;211.02;;
1140;SDS011;559;48.628;8.924;2023-04-08T00:51:57;219.88;;;208.77;;
1140;SDS011;559;48.628;8.924;2023-04-08T00:54:24;210.15;;;199.25;;
1140;SDS011;559;48.628;8.924;2023-04-08T00:56:51;216.00;;;204.90;;
1140;SDS011;559;48.628;8.924;2023-04-08T00:59:22;220.18;;;208.88;;
1140;SDS011;559;48.628;8.924;2023-04-08T01:01:50;220.48;;;208.90;;
1140;SDS011;559;48.628;8.924;2023-04-08T01:04:23;214.68;;;203.50;;
1140;SDS011;559;48.628;8.924;2023-04-08T01:06:56;224.23;;;212.63;;
1140;SDS011;559;48.628;8.924;2023-04-08T01:09:27;212.38;;;201.02;;
1140;SDS011;559;48.628;8.924;2023-04-08T01:11:55;219.90;;;208.68;;
1140;SDS011;559;48.628;8.924;2023-04-08T01:14:24;216.77;;;205.32;;
1140;SDS011;559;48.628;8.924;2023-04-08T01:16:52;222.95;;;211.30;;
1140;SDS011;559;48.628;8.924;2023-04-08T01:19:21;221.10;;;209.90;;
1140;SDS011;559;48.628;8.924;2023-04-08T01:21:51;229.43;;;217.68;;
1140;SDS011;559;48.628;8.924;2023-04-08T01:24:22;227.57;;;215.75;;
1140;SDS011;559;48.628;8.924;2023-04-08T01:26:53;225.82;;;214.30;;
1140;SDS011;559;48.628;8.924;2023-04-08T01:29:21;220.98;;;209.27;;
1140;SDS011;559;48.628;8.924;2023-04-08T01:31:49;221.30;;;210.10;;
1140;SDS011;559;48.628;8.924;2023-04-08T01:34:18;230.07;;;218.57;;
1140;SDS011;559;48.628;8.924;2023-04-08T01:36:46;227.30;;;215.80;;
1140;SDS011;559;48.628;8.924;2023-04-08T01:39:13;223.73;;;212.50;;
1140;SDS011;559;48.628;8.924;2023-04-08T01:41:45;231.85;;;220.25;;
1140;SDS011;559;48.628;8.924;2023-04-08T01:44:14;233.75;;;222.23;;
1140;SDS011;559;48.628;8.924;2023-04-08T01:46:42;234.90;;;223.55;;
1140;SDS011;559;48.628;8.924;2023-04-08T01:49:09;240.88;;;228.75;;
1140;SDS011;559;48.628;8.924;2023-04-08T01:51:37;229.93;;;218.23;;
1140;SDS011;559;48.628;8.924;2023-04-08T01:54:04;224.38;;;212.95;;
1140;SDS011;559;48.628;8.924;2023-04-08T01:56:32;239.20;;;227.35;;
1140;SDS011;559;48.628;8.924;2023-04-08T01:59:03;238.43;;;226.65;;
1140;SDS011;559;48.628;8.924;2023-04-08T02:01:36;232.43;;;220.75;;
1140;SDS011;559;48.628;8.924;2023-04-08T02:04:03;236.82;;;224.93;;
1140;SDS011;559;48.628;8.924;2023-04-08T02:06:30;232.68;;;221.20;;
1140;SDS011;559;48.628;8.924;2023-04-08T02:08:58;240.02;;;227.63;;
1140;SDS011;559;48.628;8.924;2023-04-08T02:11:24;232.98;;;221.38;;
1140;SDS011;559;48.628;8.924;2023-04-08T02:13:52;239.77;;;228.00;;
1140;SDS011;559;48.628;8.924;2023-04-08T02:16:23;234.05;;;222.55;;
1140;SDS011;559;48.628;8.924;2023-04-08T02:18:57;236.18;;;224.35;;
1140;SDS011;559;48.628;8.924;2023-04-08T02:21:26;231.35;;;219.65;;
1140;SDS011;559;48.628;8.924;2023-04-08T02:23:58;230.85;;;219.00;;
1140;SDS011;559;48.628;8.924;2023-04-08T02:26:30;241.48;;;229.48;;
1140;SDS011;559;48.628;8.924;2023-04-08T02:28:58;241.45;;;229.25;;
1140;SDS011;559;48.628;8.924;2023-04-08T02:31:28;227.30;;;215.35;;
1140;SDS011;559;48.628;8.924;2023-04-08T02:33:56;230.93;;;219.05;;
1140;SDS011;559;48.628;8.924;2023-04-08T02:36:24;231.82;;;220.25;;
1140;SDS011;559;48.628;8.924;2023-04-08T02:38:54;233.68;;;221.23;;
1140;SDS011;559;48.628;8.924;2023-04-08T02:41:20;239.07;;;226.18;;
1140;SDS011;559;48.628;8.924;2023-04-08T02:43:47;231.55;;;219.23;;
1140;SDS011;559;48.628;8.924;2023-04-08T02:46:13;234.07;;;222.18;;
1140;SDS011;559;48.628;8.924;2023-04-08T02:48:40;233.45;;;221.13;;
1140;SDS011;559;48.628;8.924;2023-04-08T02:51:08;222.05;;;210.25;;
1140;SDS011;559;48.628;8.924;2023-04-08T02:53:35;231.20;;;219.20;;
1140;SDS011;559;48.628;8.924;2023-04-08T02:56:01;230.73;;;218.77;;
1140;SDS011;559;48.628;8.924;2023-04-08T02:58:28;232.65;;;220.30;;
1140;SDS011;559;48.628;8.924;2023-04-08T03:00:55;216.00;;;204.65;;
1140;SDS011;559;48.628;8.924;2023-04-08T03:03:21;229.25;;;217.35;;
1140;SDS011;559;48.628;8.924;2023-04-08T03:05:51;233.75;;;221.48;;
1140;SDS011;559;48.628;8.924;2023-04-08T03:08:20;236.13;;;223.60;;
1140;SDS011;559;48.628;8.924;2023-04-08T03:10:47;231.77;;;219.98;;
1140;SDS011;559;48.628;8.924;2023-04-08T03:13:14;233.60;;;221.63;;
1140;SDS011;559;48.628;8.924;2023-04-08T03:15:43;232.02;;;220.23;;
1140;SDS011;559;48.628;8.924;2023-04-08T03:18:09;234.82;;;223.02;;
1140;SDS011;559;48.628;8.924;2023-04-08T03:20:36;234.82;;;223.07;;
1140;SDS011;559;48.628;8.924;2023-04-08T03:23:03;236.40;;;224.45;;
1140;SDS011;559;48.628;8.924;2023-04-08T03:25:31;235.85;;;224.00;;
1140;SDS011;559;48.628;8.924;2023-04-08T03:27:58;235.43;;;223.48;;
1140;SDS011;559;48.628;8.924;2023-04-08T03:30:25;235.30;;;223.60;;
1140;SDS011;559;48.628;8.924;2023-04-08T03:32:51;237.73;;;225.73;;
1140;SDS011;559;48.628;8.924;2023-04-08T03:35:20;246.73;;;233.77;;
1140;SDS011;559;48.628;8.924;2023-04-08T03:37:49;212.18;;;201.18;;
1140;SDS011;559;48.628;8.924;2023-04-08T03:40:16;227.45;;;215.57;;
1140;SDS011;559;48.628;8.924;2023-04-08T03:42:45;225.07;;;213.55;;
1140;SDS011;559;48.628;8.924;2023-04-08T03:45:12;222.55;;;211.45;;
1140;SDS011;559;48.628;8.924;2023-04-08T03:47:41;220.10;;;209.10;;
1140;SDS011;559;48.628;8.924;2023-04-08T03:50:09;222.18;;;211.15;;
1140;SDS011;559;48.628;8.924;2023-04-08T03:52:36;228.02;;;216.50;;
1140;SDS011;559;48.628;8.924;2023-04-08T03:55:03;215.98;;;205.48;;
1140;SDS011;559;48.628;8.924;2023-04-08T03:57:31;221.13;;;210.23;;
1140;SDS011;559;48.628;8.924;2023-04-08T03:59:59;219.45;;;208.68;;
1140;SDS011;559;48.628;8.924;2023-04-08T04:02:26;217.27;;;207.07;;
1140;SDS011;559;48.628;8.924;2023-04-08T04:04:53;222.95;;;212.38;;
1140;SDS011;559;48.628;8.924;2023-04-08T04:07:20;219.73;;;209.32;;
1140;SDS011;559;48.628;8.924;2023-04-08T04:09:49;215.15;;;204.82;;
1140;SDS011;559;48.628;8.924;2023-04-08T04:12:20;216.63;;;206.30;;
1140;SDS011;559;48.628;8.924;2023-04-08T04:14:46;209.15;;;199.05;;
1140;SDS011;559;48.628;8.924;2023-04-08T04:17:14;225.07;;;214.75;;
1140;SDS011;559;48.628;8.924;2023-04-08T04:19:42;220.73;;;210.48;;
1140;SDS011;559;48.628;8.924;2023-04-08T04:22:09;229.32;;;218.70;;
1140;SDS011;559;48.628;8.924;2023-04-08T04:24:36;223.20;;;212.65;;
1140;SDS011;559;48.628;8.924;2023-04-08T04:27:03;234.68;;;224.27;;
1140;SDS011;559;48.628;8.924;2023-04-08T04:29:30;223.40;;;213.10;;
1140;SDS011;559;48.628;8.924;2023-04-08T04:31:56;218.63;;;208.43;;
1140;SDS011;559;48.628;8.924;2023-04-08T04:34:24;221.30;;;211.02;;
1140;SDS011;559;48.628;8.924;2023-04-08T04:36:51;221.85;;;211.38;;
1140;SDS011;559;48.628;8.924;2023-04-08T04:39:18;214.13;;;203.48;;
1140;SDS011;559;48.628;8.924;2023-04-08T04:41:45;210.25;;;200.45;;
1140;SDS011;559;48.628;8.924;2023-04-08T04:44:13;219.10;;;208.70;;
1140;SDS011;559;48.628;8.924;2023-04-08T04:46:40;212.48;;;202.50;;
1140;SDS011;559;48.628;8.924;2023-04-08T04:49:07;199.43;;;189.63;;
1140;SDS011;559;48.628;8.924;2023-04-08T04:51:35;187.68;;;178.18;;
1140;SDS011;559;48.628;8.924;2023-04-08T04:54:02;209.48;;;199.57;;
1140;SDS011;559;48.628;8.924;2023-04-08T04:56:28;211.73;;;202.27;;
1140;SDS011;559;48.628;8.924;2023-04-08T04:58:55;213.55;;;204.13;;
1140;SDS011;559;48.628;8.924;2023-04-08T05:01:23;197.88;;;188.88;;
1140;SDS011;559;48.628;8.924;2023-04-08T05:03:50;204.02;;;194.77;;
1140;SDS011;559;48.628;8.924;2023-04-08T05:06:17;196.63;;;187.50;;
1140;SDS011;559;48.628;8.924;2023-04-08T05:08:45;195.55;;;186.25;;
1140;SDS011;559;48.628;8.924;2023-04-08T05:11:11;198.70;;;189.60;;
1140;SDS011;559;48.628;8.924;2023-04-08T05:13:38;200.02;;;190.60;;
1140;SDS011;559;48.628;8.924;2023-04-08T05:16:05;209.88;;;200.30;;
1140;SDS011;559;48.628;8.924;2023-04-08T05:18:32;205.02;;;195.82;;
1140;SDS011;559;48.628;8.924;2023-04-08T05:20:59;196.38;;;187.20;;
1140;SDS011;559;48.628;8.924;2023-04-08T05:23:25;196.63;;;187.32;;
1140;SDS011;559;48.628;8.924;2023-04-08T05:25:54;182.38;;;173.57;;
1140;SDS011;559;48.628;8.924;2023-04-08T05:28:21;184.45;;;175.63;;
1140;SDS011;559;48.628;8.924;2023-04-08T05:30:48;193.60;;;184.30;;
1140;SDS011;559;48.628;8.924;2023-04-08T05:33:15;188.10;;;178.90;;
1140;SDS011;559;48.628;8.924;2023-04-08T05:35:42;195.48;;;185.98;;
1140;SDS011;559;48.628;8.924;2023-04-08T05:38:08;192.20;;;183.05;;
1140;SDS011;559;48.628;8.924;2023-04-08T05:40:35;198.88;;;189.57;;
1140;SDS011;559;48.628;8.924;2023-04-08T05:43:03;189.57;;;180.68;;
1140;SDS011;559;48.628;8.924;2023-04-08T05:45:29;190.10;;;181.27;;
1140;SDS011;559;48.628;8.924;2023-04-08T05:47:56;189.43;;;180.30;;
1140;SDS011;559;48.628;8.924;2023-04-08T05:50:22;192.30;;;183.23;;
1140;SDS011;559;48.628;8.924;2023-04-08T05:52:49;192.68;;;183.18;;
1140;SDS011;559;48.628;8.924;2023-04-08T05:55:16;188.57;;;179.57;;
1140;SDS011;559;48.628;8.924;2023-04-08T05:57:42;196.88;;;187.90;;
1140;SDS011;559;48.628;8.924;2023-04-08T06:00:11;179.07;;;170.27;;
1140;SDS011;559;48.628;8.924;2023-04-08T06:02:38;178.15;;;169.60;;
1140;SDS011;559;48.628;8.924;2023-04-08T06:05:04;197.48;;;188.52;;
1140;SDS011;559;48.628;8.924;2023-04-08T06:07:31;187.93;;;179.13;;
1140;SDS011;559;48.628;8.924;2023-04-08T06:10:04;190.65;;;181.88;;
1140;SDS011;559;48.628;8.924;2023-04-08T06:12:34;184.05;;;175.10;;
1140;SDS011;559;48.628;8.924;2023-04-08T06:15:01;195.35;;;186.10;;
1140;SDS011;559;48.628;8.924;2023-04-08T06:17:29;189.45;;;180.35;;
1140;SDS011;559;48.628;8.924;2023-04-08T06:19:56;190.73;;;181.82;;
1140;SDS011;559;48.628;8.924;2023-04-08T06:22:24;175.25;;;166.40;;
1140;SDS011;559;48.628;8.924;2023-04-08T06:24:51;194.80;;;185.80;;
1140;SDS011;559;48.628;8.924;2023-04-08T06:27:18;204.65;;;195.25;;
1140;SDS011;559;48.628;8.924;2023-04-08T06:29:45;181.20;;;172.50;;
1140;SDS011;559;48.628;8.924;2023-04-08T06:32:12;189.27;;;180.40;;
1140;SDS011;559;48.628;8.924;2023-04-08T06:34:40;204.65;;;195.02;;
1140;SDS011;559;48.628;8.924;2023-04-08T06:37:07;187.38;;;178.55;;
1140;SDS011;559;48.628;8.924;2023-04-08T06:39:34;188.65;;;179.43;;
1140;SDS011;559;48.628;8.924;2023-04-08T06:42:03;179.90;;;170.52;;
1140;SDS011;559;48.628;8.924;2023-04-08T06:44:36;185.90;;;176.73;;
1140;SDS011;559;48.628;8.924;2023-04-08T06:47:04;187.10;;;177.90;;
1140;SDS011;559;48.628;8.924;2023-04-08T06:49:31;194.52;;;185.02;;
1140;SDS011;559;48.628;8.924;2023-04-08T06:52:01;195.48;;;186.18;;
1140;SDS011;559;48.628;8.924;2023-04-08T06:54:28;192.63;;;183.20;;
1140;SDS011;559;48.628;8.924;2023-04-08T06:56:55;191.30;;;182.30;;
1140;SDS011;559;48.628;8.924;2023-04-08T06:59:24;197.90;;;188.15;;
1140;SDS011;559;48.628;8.924;2023-04-08T07:01:54;212.65;;;202.32;;
1140;SDS011;559;48.628;8.924;2023-04-08T07:04:21;211.70;;;201.38;;
1140;SDS011;559;48.628;8.924;2023-04-08T07:06:48;212.05;;;201.98;;
1140;SDS011;559;48.628;8.924;2023-04-08T07:09:18;190.40;;;181.00;;
1140;SDS011;559;48.628;8.924;2023-04-08T07:11:46;205.98;;;196.25;;
1140;SDS011;559;48.628;8.924;2023-04-08T07:14:29;199.07;;;189.57;;
1140;SDS011;559;48.628;8.924;2023-04-08T07:16:57;192.05;;;182.57;;
1140;SDS011;559;48.628;8.924;2023-04-08T07:19:26;181.82;;;172.77;;
1140;SDS011;559;48.628;8.924;2023-04-08T07:21:53;187.18;;;178.13;;
1140;SDS011;559;48.628;8.924;2023-04-08T07:24:29;163.48;;;155.48;;
1140;SDS011;559;48.628;8.924;2023-04-08T07:26:58;172.05;;;163.75;;
1140;SDS011;559;48.628;8.924;2023-04-08T07:29:28;161.55;;;153.50;;
1140;SDS011;559;48.628;8.924;2023-04-08T07:32:09;165.95;;;157.95;;
1140;SDS011;559;48.628;8.924;2023-04-08T07:34:37;176.88;;;168.13;;
1140;SDS011;559;48.628;8.924;2023-04-08T07:37:07;179.70;;;170.82;;
1140;SDS011;559;48.628;8.924;2023-04-08T07:39:35;187.98;;;178.88;;
1140;SDS011;559;48.628;8.924;2023-04-08T07:42:02;180.55;;;171.73;;
1140;SDS011;559;48.628;8.924;2023-04-08T07:44:30;178.02;;;168.98;;
1140;SDS011;559;48.628;8.924;2023-04-08T07:46:58;172.52;;;163.68;;
1140;SDS011;559;48.628;8.924;2023-04-08T07:49:29;171.32;;;162.50;;
1140;SDS011;559;48.628;8.924;2023-04-08T07:51:56;170.10;;;161.50;;
1140;SDS011;559;48.628;8.924;2023-04-08T07:54:24;166.02;;;157.73;;
1140;SDS011;559;48.628;8.924;2023-04-08T07:56:54;185.98;;;176.88;;
1140;SDS011;559;48.628;8.924;2023-04-08T07:59:21;181.07;;;171.95;;
1140;SDS011;559;48.628;8.924;2023-04-08T08:01:47;192.15;;;182.65;;
1140;SDS011;559;48.628;8.924;2023-04-08T08:04:14;182.07;;;172.73;;
1140;SDS011;559;48.628;8.924;2023-04-08T08:06:42;184.15;;;175.05;;
1140;SDS011;559;48.628;8.924;2023-04-08T08:09:09;188.77;;;179.35;;
1140;SDS011;559;48.628;8.924;2023-04-08T08:11:35;172.30;;;163.38;;
1140;SDS011;559;48.628;8.924;2023-04-08T08:14:03;167.55;;;158.95;;
1140;SDS011;559;48.628;8.924;2023-04-08T08:16:31;160.88;;;152.63;;
1140;SDS011;559;48.628;8.924;2023-04-08T08:18:58;160.68;;;152.73;;
1140;SDS011;559;48.628;8.924;2023-04-08T08:21:25;173.25;;;164.55;;
1140;SDS011;559;48.628;8.924;2023-04-08T08:23:52;157.95;;;150.15;;
1140;SDS011;559;48.628;8.924;2023-04-08T08:26:20;165.35;;;156.75;;
1140;SDS011;559;48.628;8.924;2023-04-08T08:28:49;160.50;;;152.40;;
1140;SDS011;559;48.628;8.924;2023-04-08T08:31:16;164.95;;;156.95;;
1140;SDS011;559;48.628;8.924;2023-04-08T08:33:43;159.52;;;151.57;;
1140;SDS011;559;48.628;8.924;2023-04-08T08:36:11;154.60;;;146.50;;
1140;SDS011;559;48.628;8.924;2023-04-08T08:38:38;148.93;;;141.10;;
1140;SDS011;559;48.628;8.924;2023-04-08T08:41:05;154.82;;;147.13;;
1140;SDS011;559;48.628;8.924;2023-04-08T08:43:32;152.90;;;145.05;;
1140;SDS011;559;48.628;8.924;2023-04-08T08:45:58;139.98;;;133.18;;
1140;SDS011;559;48.628;8.924;2023-04-08T08:48:27;135.02;;;128.20;;
1140;SDS011;559;48.628;8.924;2023-04-08T08:50:53;140.85;;;133.55;;
1140;SDS011;559;48.628;8.924;2023-04-08T08:53:20;134.40;;;127.50;;
1140;SDS011;559;48.628;8.924;2023-04-08T08:55:48;136.20;;;129.13;;
1140;SDS011;559;48.628;8.924;2023-04-08T08:58:14;135.57;;;128.77;;
1140;SDS011;559;48.628;8.924;2023-04-08T09:00:41;129.85;;;123.05;;
1140;SDS011;559;48.628;8.924;2023-04-08T09:03:15;131.27;;;124.68;;
1140;SDS011;559;48.628;8.924;2023-04-08T09:05:51;122.25;;;116.25;;
1140;SDS011;559;48.628;8.924;2023-04-08T09:08:25;123.35;;;117.22;;
1140;SDS011;559;48.628;8.924;2023-04-08T09:10:53;126.45;;;120.20;;
1140;SDS011;559;48.628;8.924;2023-04-08T09:13:20;119.10;;;113.30;;
1140;SDS011;559;48.628;8.924;2023-04-08T09:16:00;116.57;;;110.80;;
1140;SDS011;559;48.628;8.924;2023-04-08T09:18:27;120.30;;;114.30;;
1140;SDS011;559;48.628;8.924;2023-04-08T09:20:55;116.10;;;110.40;;
1140;SDS011;559;48.628;8.924;2023-04-08T09:23:22;113.82;;;107.90;;
1140;SDS011;559;48.628;8.924;2023-04-08T09:25:49;108.82;;;103.28;;
1140;SDS011;559;48.628;8.924;2023-04-08T09:28:18;118.18;;;112.47;;
1140;SDS011;559;48.628;8.924;2023-04-08T09:30:45;114.95;;;109.15;;
1140;SDS011;559;48.628;8.924;2023-04-08T09:33:12;112.43;;;106.85;;
1140;SDS011;559;48.628;8.924;2023-04-08T09:35:38;100.28;;;95.38;;
1140;SDS011;559;48.628;8.924;2023-04-08T09:38:07;96.93;;;92.25;;
1140;SDS011;559;48.628;8.924;2023-04-08T09:40:33;90.30;;;85.80;;
1140;SDS011;559;48.628;8.924;2023-04-08T09:43:01;91.82;;;87.60;;
1140;SDS011;559;48.628;8.924;2023-04-08T09:45:30;93.82;;;89.22;;
1140;SDS011;559;48.628;8.924;2023-04-08T09:48:02;86.55;;;82.55;;
1140;SDS011;559;48.628;8.924;2023-04-08T09:50:35;64.40;;;61.60;;
1140;SDS011;559;48.628;8.924;2023-04-08T09:53:08;69.28;;;66.22;;
1140;SDS011;559;48.628;8.924;2023-04-08T09:55:38;78.13;;;74.63;;
1140;SDS011;559;48.628;8.924;2023-04-08T09:58:07;81.03;;;77.43;;
1140;SDS011;559;48.628;8.924;2023-04-08T10:00:37;74.57;;;71.38;;
1140;SDS011;559;48.628;8.924;2023-04-08T10:03:09;79.68;;;75.88;;
1140;SDS011;559;48.628;8.924;2023-04-08T10:05:37;80.05;;;76.45;;
1140;SDS011;559;48.628;8.924;2023-04-08T10:08:06;74.70;;;71.25;;
1140;SDS011;559;48.628;8.924;2023-04-08T10:10:34;55.85;;;52.85;;
1140;SDS011;559;48.628;8.924;2023-04-08T10:13:02;51.58;;;48.97;;
1140;SDS011;559;48.628;8.924;2023-04-08T10:15:29;58.35;;;55.55;;
1140;SDS011;559;48.628;8.924;2023-04-08T10:20:57;39.80;;;37.80;;
1140;SDS011;559;48.628;8.924;2023-04-08T10:26:30;45.80;;;43.22;;
1140;SDS011;559;48.628;8.924;2023-04-08T10:31:56;55.28;;;52.67;;
1140;SDS011;559;48.628;8.924;2023-04-08T10:34:23;59.63;;;57.03;;
1140;SDS011;559;48.628;8.924;2023-04-08T10:36:51;45.53;;;42.97;;
1140;SDS011;559;48.628;8.924;2023-04-08T10:39:19;51.22;;;48.78;;
1140;SDS011;559;48.628;8.924;2023-04-08T10:41:48;53.25;;;50.92;;
1140;SDS011;559;48.628;8.924;2023-04-08T10:44:15;65.03;;;62.35;;
1140;SDS011;559;48.628;8.924;2023-04-08T10:46:42;37.78;;;35.80;;
1140;SDS011;559;48.628;8.924;2023-04-08T10:49:08;37.38;;;35.55;;
1140;SDS011;559;48.628;8.924;2023-04-08T10:51:35;45.33;;;43.03;;
1140;SDS011;559;48.628;8.924;2023-04-08T10:54:05;51.30;;;48.72;;
1140;SDS011;559;48.628;8.924;2023-04-08T10:56:32;47.55;;;45.35;;
1140;SDS011;559;48.628;8.924;2023-04-08T10:59:01;67.55;;;64.65;;
1140;SDS011;559;48.628;8.924;2023-04-08T11:01:36;75.75;;;71.97;;
1140;SDS011;559;48.628;8.924;2023-04-08T11:04:06;77.30;;;74.20;;
1140;SDS011;559;48.628;8.924;2023-04-08T11:06:36;68.45;;;65.57;;
1140;SDS011;559;48.628;8.924;2023-04-08T11:09:03;64.35;;;61.55;;
1140;SDS011;559;48.628;8.924;2023-04-08T11:11:29;68.85;;;65.75;;
1140;SDS011;559;48.628;8.924;2023-04-08T11:13:56;68.05;;;65.15;;
1140;SDS011;559;48.628;8.924;2023-04-08T11:16:24;76.47;;;73.18;;
1140;SDS011;559;48.628;8.924;2023-04-08T11:18:52;81.43;;;78.18;;
1140;SDS011;559;48.628;8.924;2023-04-08T11:21:19;84.40;;;81.03;;
1140;SDS011;559;48.628;8.924;2023-04-08T11:23:48;60.40;;;57.70;;
1140;SDS011;559;48.628;8.924;2023-04-08T11:26:14;69.22;;;66.22;;
1140;SDS011;559;48.628;8.924;2023-04-08T11:28:41;52.17;;;49.83;;
1140;SDS011;559;48.628;8.924;2023-04-08T11:31:08;69.57;;;66.50;;
1140;SDS011;559;48.628;8.924;2023-04-08T11:33:37;81.20;;;77.88;;
1140;SDS011;559;48.628;8.924;2023-04-08T11:36:09;84.40;;;81.30;;
1140;SDS011;559;48.628;8.924;2023-04-08T11:38:37;84.28;;;80.63;;
1140;SDS011;559;48.628;8.924;2023-04-08T11:41:05;81.97;;;78.80;;
1140;SDS011;559;48.628;8.924;2023-04-08T11:43:31;83.97;;;80.78;;
1140;SDS011;559;48.628;8.924;2023-04-08T11:46:06;71.82;;;68.97;;
1140;SDS011;559;48.628;8.924;2023-04-08T11:48:34;65.40;;;62.70;;
1140;SDS011;559;48.628;8.924;2023-04-08T11:51:05;87.78;;;84.28;;
1140;SDS011;559;48.628;8.924;2023-04-08T11:53:33;63.92;;;61.33;;
1140;SDS011;559;48.628;8.924;2023-04-08T11:58:43;61.22;;;58.35;;
1140;SDS011;559;48.628;8.924;2023-04-08T12:01:10;59.17;;;56.28;;
1140;SDS011;559;48.628;8.924;2023-04-08T12:03:36;46.55;;;44.45;;
1140;SDS011;559;48.628;8.924;2023-04-08T12:06:04;63.53;;;60.65;;
1140;SDS011;559;48.628;8.924;2023-04-08T12:08:32;74.03;;;71.13;;
1140;SDS011;559;48.628;8.924;2023-04-08T12:10:59;78.88;;;75.55;;
1140;SDS011;559;48.628;8.924;2023-04-08T12:13:26;90.68;;;87.18;;
1140;SDS011;559;48.628;8.924;2023-04-08T12:15:53;104.20;;;100.10;;
1140;SDS011;559;48.628;8.924;2023-04-08T12:18:19;94.65;;;91.13;;
1140;SDS011;559;48.628;8.924;2023-04-08T12:20:46;96.65;;;92.88;;
1140;SDS011;559;48.628;8.924;2023-04-08T12:23:14;93.75;;;90.43;;
1140;SDS011;559;48.628;8.924;2023-04-08T12:25:41;80.05;;;77.05;;
1140;SDS011;559;48.628;8.924;2023-04-08T12:28:07;67.70;;;65.03;;
1140;SDS011;559;48.628;8.924;2023-04-08T12:30:35;72.28;;;69.38;;
1140;SDS011;559;48.628;8.924;2023-04-08T12:33:02;67.22;;;64.40;;
1140;SDS011;559;48.628;8.924;2023-04-08T12:35:28;81.40;;;78.13;;
1140;SDS011;559;48.628;8.924;2023-04-08T12:37:55;88.88;;;85.38;;
1140;SDS011;559;48.628;8.924;2023-04-08T12:40:23;77.57;;;74.53;;
1140;SDS011;559;48.628;8.924;2023-04-08T12:42:50;56.13;;;53.60;;
1140;SDS011;559;48.628;8.924;2023-04-08T12:45:17;63.25;;;60.55;;
1140;SDS011;559;48.628;8.924;2023-04-08T12:47:43;39.60;;;37.42;;
1140;SDS011;559;48.628;8.924;2023-04-08T12:50:10;51.17;;;48.97;;
1140;SDS011;559;48.628;8.924;2023-04-08T12:52:36;33.58;;;31.73;;
1140;SDS011;559;48.628;8.924;2023-04-08T12:55:03;46.72;;;44.13;;
1140;SDS011;559;48.628;8.924;2023-04-08T12:57:31;38.63;;;36.60;;
1140;SDS011;559;48.628;8.924;2023-04-08T12:59:58;53.13;;;50.45;;
1140;SDS011;559;48.628;8.924;2023-04-08T13:02:25;34.10;;;32.20;;
1140;SDS011;559;48.628;8.924;2023-04-08T13:04:51;50.92;;;48.63;;
1140;SDS011;559;48.628;8.924;2023-04-08T13:07:19;44.65;;;42.45;;
1140;SDS011;559;48.628;8.924;2023-04-08T13:09:46;37.28;;;35.30;;
1140;SDS011;559;48.628;8.924;2023-04-08T13:12:12;29.35;;;27.75;;
1140;SDS011;559;48.628;8.924;2023-04-08T13:14:48;27.92;;;26.08;;
1140;SDS011;559;48.628;8.924;2023-04-08T13:17:24;52.45;;;49.85;;
1140;SDS011;559;48.628;8.924;2023-04-08T13:19:53;47.40;;;45.00;;
1140;SDS011;559;48.628;8.924;2023-04-08T13:22:20;45.10;;;42.50;;
1140;SDS011;559;48.628;8.924;2023-04-08T13:24:46;38.65;;;36.65;;
1140;SDS011;559;48.628;8.924;2023-04-08T13:27:14;42.83;;;40.75;;
1140;SDS011;559;48.628;8.924;2023-04-08T13:32:22;42.75;;;40.72;;
1140;SDS011;559;48.628;8.924;2023-04-08T13:34:49;41.70;;;39.47;;
1140;SDS011;559;48.628;8.924;2023-04-08T13:37:15;37.42;;;35.42;;
1140;SDS011;559;48.628;8.924;2023-04-08T13:39:42;40.85;;;38.55;;
1140;SDS011;559;48.628;8.924;2023-04-08T13:42:11;31.35;;;29.38;;
1140;SDS011;559;48.628;8.924;2023-04-08T13:44:41;32.85;;;31.05;;
1140;SDS011;559;48.628;8.924;2023-04-08T13:47:14;58.95;;;56.50;;
1140;SDS011;559;48.628;8.924;2023-04-08T13:49:41;66.97;;;64.35;;
1140;SDS011;559;48.628;8.924;2023-04-08T13:52:22;48.00;;;45.88;;
1140;SDS011;559;48.628;8.924;2023-04-08T13:55:07;27.35;;;25.75;;
1140;SDS011;559;48.628;8.924;2023-04-08T13:57:45;30.55;;;28.85;;
1140;SDS011;559;48.628;8.924;2023-04-08T14:00:26;38.63;;;36.15;;
1140;SDS011;559;48.628;8.924;2023-04-08T14:03:00;39.95;;;37.92;;
1140;SDS011;559;48.628;8.924;2023-04-08T14:05:33;25.23;;;23.50;;
1140;SDS011;559;48.628;8.924;2023-04-08T14:08:07;22.25;;;20.65;;
1140;SDS011;559;48.628;8.924;2023-04-08T14:10:35;18.05;;;16.35;;
1140;SDS011;559;48.628;8.924;2023-04-08T14:13:04;15.55;;;14.05;;
1140;SDS011;559;48.628;8.924;2023-04-08T14:15:31;24.33;;;15.65;;
1140;SDS011;559;48.628;8.924;2023-04-08T14:18:04;16.65;;;15.05;;
1140;SDS011;559;48.628;8.924;2023-04-08T14:20:31;17.17;;;15.55;;
1140;SDS011;559;48.628;8.924;2023-04-08T14:22:59;52.97;;;50.58;;
1140;SDS011;559;48.628;8.924;2023-04-08T14:25:31;77.45;;;74.15;;
1140;SDS011;559;48.628;8.924;2023-04-08T14:27:57;75.20;;;72.05;;
1140;SDS011;559;48.628;8.924;2023-04-08T14:30:33;81.25;;;78.15;;
1140;SDS011;559;48.628;8.924;2023-04-08T14:33:01;78.85;;;75.55;;
1140;SDS011;559;48.628;8.924;2023-04-08T14:35:30;93.03;;;89.72;;
1140;SDS011;559;48.628;8.924;2023-04-08T14:38:00;78.35;;;75.25;;
1140;SDS011;559;48.628;8.924;2023-04-08T14:41:00;78.30;;;74.97;;
1140;SDS011;559;48.628;8.924;2023-04-08T14:44:15;54.80;;;52.13;;
1140;SDS011;559;48.628;8.924;2023-04-08T15:18:56;95.75;;;92.25;;
1140;SDS011;559;48.628;8.924;2023-04-08T15:25:32;94.93;;;91.32;;
1140;SDS011;559;48.628;8.924;2023-04-08T15:28:00;86.10;;;82.82;;
1140;SDS011;559;48.628;8.924;2023-04-08T15:37:04;53.72;;;51.25;;
1140;SDS011;559;48.628;8.924;2023-04-08T15:39:54;54.20;;;51.70;;
1140;SDS011;559;48.628;8.924;2023-04-08T15:42:21;64.32;;;61.55;;
1140;SDS011;559;48.628;8.924;2023-04-08T15:44:48;71.43;;;68.68;;
1140;SDS011;559;48.628;8.924;2023-04-08T15:47:14;67.50;;;64.40;;